sensor_id;sensor_type;location;lat;lon;timestamp;temperature;humidity
44166;DHT22;30476;53.468;9.826;2023-02-13T00:00:21;9.00;99.90
44166;DHT22;30476;53.468;9.826;2023-02-13T00:02:48;9.00;99.90
44166;DHT22;30476;53.468;9.826;2023-02-13T00:05:14;9.00;99.90
44166;DHT22;30476;53.468;9.826;2023-02-13T00:07:39;9.00;99.90
44166;DHT22;30476;53.468;9.826;2023-02-13T00:10:06;9.00;99.90
44166;DHT22;30476;53.468;9.826;2023-02-13T00:12:32;8.90;99.90
44166;DHT22;30476;53.468;9.826;2023-02-13T00:14:58;8.90;99.90
44166;DHT22;30476;53.468;9.826;2023-02-13T00:17:25;9.00;99.90
44166;DHT22;30476;53.468;9.826;2023-02-13T00:19:51;8.90;99.90
44166;DHT22;30476;53.468;9.826;2023-02-13T00:22:17;8.90;99.90
44166;DHT22;30476;53.468;9.826;2023-02-13T00:24:43;8.90;99.90
44166;DHT22;30476;53.468;9.826;2023-02-13T00:27:09;9.00;99.90
44166;DHT22;30476;53.468;9.826;2023-02-13T00:29:34;8.90;99.90
44166;DHT22;30476;53.468;9.826;2023-02-13T00:32:00;8.90;99.90
44166;DHT22;30476;53.468;9.826;2023-02-13T00:34:26;8.90;99.90
44166;DHT22;30476;53.468;9.826;2023-02-13T00:36:52;8.90;99.90
44166;DHT22;30476;53.468;9.826;2023-02-13T00:39:18;8.90;99.90
44166;DHT22;30476;53.468;9.826;2023-02-13T00:41:44;8.90;99.90
44166;DHT22;30476;53.468;9.826;2023-02-13T00:44:10;8.90;99.90
44166;DHT22;30476;53.468;9.826;2023-02-13T00:46:36;8.90;99.90
44166;DHT22;30476;53.468;9.826;2023-02-13T00:49:03;8.90;99.90
44166;DHT22;30476;53.468;9.826;2023-02-13T00:51:29;8.90;99.90
44166;DHT22;30476;53.468;9.826;2023-02-13T00:53:55;8.90;99.90
44166;DHT22;30476;53.468;9.826;2023-02-13T00:56:21;8.90;99.90
44166;DHT22;30476;53.468;9.826;2023-02-13T00:58:47;8.90;99.90
44166;DHT22;30476;53.468;9.826;2023-02-13T01:01:14;8.90;99.90
44166;DHT22;30476;53.468;9.826;2023-02-13T01:03:40;8.90;99.90
44166;DHT22;30476;53.468;9.826;2023-02-13T01:06:06;8.90;99.90
44166;DHT22;30476;53.468;9.826;2023-02-13T01:08:32;8.90;99.90
44166;DHT22;30476;53.468;9.826;2023-02-13T01:10:58;8.90;99.90
44166;DHT22;30476;53.468;9.826;2023-02-13T01:13:24;8.80;99.90
44166;DHT22;30476;53.468;9.826;2023-02-13T01:15:50;8.80;99.90
44166;DHT22;30476;53.468;9.826;2023-02-13T01:18:18;8.80;99.90
44166;DHT22;30476;53.468;9.826;2023-02-13T01:20:45;8.80;99.90
44166;DHT22;30476;53.468;9.826;2023-02-13T01:23:19;8.80;99.90
44166;DHT22;30476;53.468;9.826;2023-02-13T01:25:45;8.80;99.90
44166;DHT22;30476;53.468;9.826;2023-02-13T01:28:11;8.80;99.90
44166;DHT22;30476;53.468;9.826;2023-02-13T01:30:36;8.80;99.90
44166;DHT22;30476;53.468;9.826;2023-02-13T01:33:02;8.80;99.90
44166;DHT22;30476;53.468;9.826;2023-02-13T01:35:28;8.80;99.90
44166;DHT22;30476;53.468;9.826;2023-02-13T01:37:54;8.80;99.90
44166;DHT22;30476;53.468;9.826;2023-02-13T01:40:20;8.80;99.90
44166;DHT22;30476;53.468;9.826;2023-02-13T01:42:45;8.70;99.90
44166;DHT22;30476;53.468;9.826;2023-02-13T01:45:27;8.70;99.90
44166;DHT22;30476;53.468;9.826;2023-02-13T01:48:06;8.80;99.90
44166;DHT22;30476;53.468;9.826;2023-02-13T01:50:37;8.70;99.90
44166;DHT22;30476;53.468;9.826;2023-02-13T01:53:05;8.80;99.90
44166;DHT22;30476;53.468;9.826;2023-02-13T01:55:36;8.70;99.90
44166;DHT22;30476;53.468;9.826;2023-02-13T01:58:08;8.70;99.90
44166;DHT22;30476;53.468;9.826;2023-02-13T02:00:37;8.70;99.90
44166;DHT22;30476;53.468;9.826;2023-02-13T02:03:11;8.70;99.90
44166;DHT22;30476;53.468;9.826;2023-02-13T02:05:38;8.70;99.90
44166;DHT22;30476;53.468;9.826;2023-02-13T02:08:08;8.70;99.90
44166;DHT22;30476;53.468;9.826;2023-02-13T02:10:35;8.70;99.90
44166;DHT22;30476;53.468;9.826;2023-02-13T02:13:14;8.70;99.90
44166;DHT22;30476;53.468;9.826;2023-02-13T02:15:41;8.70;99.90
44166;DHT22;30476;53.468;9.826;2023-02-13T02:18:19;8.70;99.90
44166;DHT22;30476;53.468;9.826;2023-02-13T02:34:43;8.60;99.90
44166;DHT22;30476;53.468;9.826;2023-02-13T02:40:08;8.60;99.90
44166;DHT22;30476;53.468;9.826;2023-02-13T02:45:39;8.60;99.90
44166;DHT22;30476;53.468;9.826;2023-02-13T02:51:09;8.50;99.90
44166;DHT22;30476;53.468;9.826;2023-02-13T02:53:52;8.50;99.90
44166;DHT22;30476;53.468;9.826;2023-02-13T02:56:24;8.50;99.90
44166;DHT22;30476;53.468;9.826;2023-02-13T02:59:04;8.60;99.90
44166;DHT22;30476;53.468;9.826;2023-02-13T03:01:52;8.50;99.90
44166;DHT22;30476;53.468;9.826;2023-02-13T03:04:41;8.50;99.90
44166;DHT22;30476;53.468;9.826;2023-02-13T03:07:27;8.50;99.90
44166;DHT22;30476;53.468;9.826;2023-02-13T03:10:08;8.50;99.90
44166;DHT22;30476;53.468;9.826;2023-02-13T03:13:13;8.50;99.90
44166;DHT22;30476;53.468;9.826;2023-02-13T03:15:47;8.50;99.90
44166;DHT22;30476;53.468;9.826;2023-02-13T03:18:43;8.50;99.90
44166;DHT22;30476;53.468;9.826;2023-02-13T03:21:58;8.50;99.90
44166;DHT22;30476;53.468;9.826;2023-02-13T03:25:02;8.50;99.90
44166;DHT22;30476;53.468;9.826;2023-02-13T03:27:56;8.50;99.90
44166;DHT22;30476;53.468;9.826;2023-02-13T03:33:52;8.50;99.90
44166;DHT22;30476;53.468;9.826;2023-02-13T03:40:02;8.40;99.90
44166;DHT22;30476;53.468;9.826;2023-02-13T03:42:51;8.40;99.90
44166;DHT22;30476;53.468;9.826;2023-02-13T03:45:22;8.40;99.90
44166;DHT22;30476;53.468;9.826;2023-02-13T03:48:09;8.40;99.90
44166;DHT22;30476;53.468;9.826;2023-02-13T03:50:57;8.40;99.90
44166;DHT22;30476;53.468;9.826;2023-02-13T03:53:27;8.40;99.90
44166;DHT22;30476;53.468;9.826;2023-02-13T03:55:53;8.40;99.90
44166;DHT22;30476;53.468;9.826;2023-02-13T03:58:46;8.40;99.90
44166;DHT22;30476;53.468;9.826;2023-02-13T04:01:35;8.50;99.90
44166;DHT22;30476;53.468;9.826;2023-02-13T04:04:24;8.50;99.90
44166;DHT22;30476;53.468;9.826;2023-02-13T04:06:56;8.40;99.90
44166;DHT22;30476;53.468;9.826;2023-02-13T04:09:25;8.40;99.90
44166;DHT22;30476;53.468;9.826;2023-02-13T04:11:56;8.50;99.90
44166;DHT22;30476;53.468;9.826;2023-02-13T04:14:52;8.40;99.90
44166;DHT22;30476;53.468;9.826;2023-02-13T04:17:28;8.40;99.90
44166;DHT22;30476;53.468;9.826;2023-02-13T04:19:54;8.40;99.90
44166;DHT22;30476;53.468;9.826;2023-02-13T04:22:20;8.40;99.90
44166;DHT22;30476;53.468;9.826;2023-02-13T04:24:46;8.40;99.90
44166;DHT22;30476;53.468;9.826;2023-02-13T04:27:14;8.40;99.90
44166;DHT22;30476;53.468;9.826;2023-02-13T04:29:41;8.40;99.90
44166;DHT22;30476;53.468;9.826;2023-02-13T04:32:08;8.40;99.90
44166;DHT22;30476;53.468;9.826;2023-02-13T04:34:34;8.40;99.90
44166;DHT22;30476;53.468;9.826;2023-02-13T04:37:00;8.40;99.90
44166;DHT22;30476;53.468;9.826;2023-02-13T04:39:25;8.40;99.90
44166;DHT22;30476;53.468;9.826;2023-02-13T04:41:51;8.40;99.90
44166;DHT22;30476;53.468;9.826;2023-02-13T04:44:17;8.40;99.90
44166;DHT22;30476;53.468;9.826;2023-02-13T04:46:43;8.40;99.90
44166;DHT22;30476;53.468;9.826;2023-02-13T04:49:09;8.40;99.90
44166;DHT22;30476;53.468;9.826;2023-02-13T04:51:35;8.40;99.90
44166;DHT22;30476;53.468;9.826;2023-02-13T04:54:01;8.40;99.90
44166;DHT22;30476;53.468;9.826;2023-02-13T04:56:27;8.40;99.90
44166;DHT22;30476;53.468;9.826;2023-02-13T04:58:54;8.40;99.90
44166;DHT22;30476;53.468;9.826;2023-02-13T05:01:20;8.40;99.90
44166;DHT22;30476;53.468;9.826;2023-02-13T05:03:47;8.40;99.90
44166;DHT22;30476;53.468;9.826;2023-02-13T05:06:13;8.40;99.90
44166;DHT22;30476;53.468;9.826;2023-02-13T05:08:39;8.30;99.90
44166;DHT22;30476;53.468;9.826;2023-02-13T05:11:05;8.40;99.90
44166;DHT22;30476;53.468;9.826;2023-02-13T05:13:32;8.40;99.90
44166;DHT22;30476;53.468;9.826;2023-02-13T05:15:57;8.30;99.90
44166;DHT22;30476;53.468;9.826;2023-02-13T05:18:23;8.30;99.90
44166;DHT22;30476;53.468;9.826;2023-02-13T05:20:49;8.30;99.90
44166;DHT22;30476;53.468;9.826;2023-02-13T05:23:35;8.30;99.90
44166;DHT22;30476;53.468;9.826;2023-02-13T05:26:02;8.30;99.90
44166;DHT22;30476;53.468;9.826;2023-02-13T05:28:28;8.30;99.90
44166;DHT22;30476;53.468;9.826;2023-02-13T05:31:12;8.30;99.90
44166;DHT22;30476;53.468;9.826;2023-02-13T05:33:38;8.30;99.90
44166;DHT22;30476;53.468;9.826;2023-02-13T05:36:04;8.30;99.90
44166;DHT22;30476;53.468;9.826;2023-02-13T05:38:30;8.30;99.90
44166;DHT22;30476;53.468;9.826;2023-02-13T05:40:59;8.30;99.90
44166;DHT22;30476;53.468;9.826;2023-02-13T05:43:26;8.30;99.90
44166;DHT22;30476;53.468;9.826;2023-02-13T05:46:08;8.30;99.90
44166;DHT22;30476;53.468;9.826;2023-02-13T05:48:34;8.30;99.90
44166;DHT22;30476;53.468;9.826;2023-02-13T05:51:00;8.30;99.90
44166;DHT22;30476;53.468;9.826;2023-02-13T05:53:27;8.30;99.90
44166;DHT22;30476;53.468;9.826;2023-02-13T05:55:54;8.30;99.90
44166;DHT22;30476;53.468;9.826;2023-02-13T05:58:20;8.30;99.90
44166;DHT22;30476;53.468;9.826;2023-02-13T06:00:47;8.30;99.90
44166;DHT22;30476;53.468;9.826;2023-02-13T06:03:13;8.30;99.90
44166;DHT22;30476;53.468;9.826;2023-02-13T06:05:39;8.30;99.90
44166;DHT22;30476;53.468;9.826;2023-02-13T06:08:05;8.20;99.90
44166;DHT22;30476;53.468;9.826;2023-02-13T06:10:31;8.20;99.90
44166;DHT22;30476;53.468;9.826;2023-02-13T06:12:57;8.20;99.90
44166;DHT22;30476;53.468;9.826;2023-02-13T06:15:23;8.20;99.90
44166;DHT22;30476;53.468;9.826;2023-02-13T06:17:49;8.20;99.90
44166;DHT22;30476;53.468;9.826;2023-02-13T06:20:14;8.20;99.90
44166;DHT22;30476;53.468;9.826;2023-02-13T06:22:40;8.20;99.90
44166;DHT22;30476;53.468;9.826;2023-02-13T06:25:06;8.20;99.90
44166;DHT22;30476;53.468;9.826;2023-02-13T06:27:32;8.20;99.90
44166;DHT22;30476;53.468;9.826;2023-02-13T06:29:58;8.20;99.90
44166;DHT22;30476;53.468;9.826;2023-02-13T06:32:23;8.20;99.90
44166;DHT22;30476;53.468;9.826;2023-02-13T06:34:49;8.20;99.90
44166;DHT22;30476;53.468;9.826;2023-02-13T06:37:15;8.20;99.90
44166;DHT22;30476;53.468;9.826;2023-02-13T06:39:41;8.20;99.90
44166;DHT22;30476;53.468;9.826;2023-02-13T06:42:07;8.20;99.90
44166;DHT22;30476;53.468;9.826;2023-02-13T06:44:33;8.20;99.90
44166;DHT22;30476;53.468;9.826;2023-02-13T06:46:58;8.20;99.90
44166;DHT22;30476;53.468;9.826;2023-02-13T06:49:24;8.20;99.90
44166;DHT22;30476;53.468;9.826;2023-02-13T06:51:50;8.20;99.90
44166;DHT22;30476;53.468;9.826;2023-02-13T06:54:16;8.20;99.90
44166;DHT22;30476;53.468;9.826;2023-02-13T06:56:42;8.20;99.90
44166;DHT22;30476;53.468;9.826;2023-02-13T06:59:08;8.10;99.90
44166;DHT22;30476;53.468;9.826;2023-02-13T07:01:33;8.10;99.90
44166;DHT22;30476;53.468;9.826;2023-02-13T07:03:59;8.20;99.90
44166;DHT22;30476;53.468;9.826;2023-02-13T07:06:25;8.20;99.90
44166;DHT22;30476;53.468;9.826;2023-02-13T07:08:51;8.20;99.90
44166;DHT22;30476;53.468;9.826;2023-02-13T07:11:21;8.20;99.90
44166;DHT22;30476;53.468;9.826;2023-02-13T07:13:48;8.20;99.90
44166;DHT22;30476;53.468;9.826;2023-02-13T07:16:14;8.20;99.90
44166;DHT22;30476;53.468;9.826;2023-02-13T07:18:40;8.20;99.90
44166;DHT22;30476;53.468;9.826;2023-02-13T07:21:06;8.20;99.90
44166;DHT22;30476;53.468;9.826;2023-02-13T07:23:33;8.20;99.90
44166;DHT22;30476;53.468;9.826;2023-02-13T07:25:59;8.20;99.90
44166;DHT22;30476;53.468;9.826;2023-02-13T07:28:26;8.20;99.90
44166;DHT22;30476;53.468;9.826;2023-02-13T07:30:52;8.20;99.90
44166;DHT22;30476;53.468;9.826;2023-02-13T07:33:18;8.20;99.90
44166;DHT22;30476;53.468;9.826;2023-02-13T07:35:48;8.20;99.90
44166;DHT22;30476;53.468;9.826;2023-02-13T07:38:15;8.20;99.90
44166;DHT22;30476;53.468;9.826;2023-02-13T07:40:40;8.20;99.90
44166;DHT22;30476;53.468;9.826;2023-02-13T07:43:06;8.20;99.90
44166;DHT22;30476;53.468;9.826;2023-02-13T07:45:32;8.20;99.90
44166;DHT22;30476;53.468;9.826;2023-02-13T07:47:58;8.20;99.90
44166;DHT22;30476;53.468;9.826;2023-02-13T07:50:27;8.20;99.90
44166;DHT22;30476;53.468;9.826;2023-02-13T07:52:58;8.20;99.90
44166;DHT22;30476;53.468;9.826;2023-02-13T07:55:24;8.30;99.90
44166;DHT22;30476;53.468;9.826;2023-02-13T07:57:50;8.20;99.90
44166;DHT22;30476;53.468;9.826;2023-02-13T08:00:16;8.30;99.90
44166;DHT22;30476;53.468;9.826;2023-02-13T08:02:43;8.30;99.90
44166;DHT22;30476;53.468;9.826;2023-02-13T08:05:08;8.30;99.90
44166;DHT22;30476;53.468;9.826;2023-02-13T08:07:35;8.30;99.90
44166;DHT22;30476;53.468;9.826;2023-02-13T08:10:01;8.30;99.90
44166;DHT22;30476;53.468;9.826;2023-02-13T08:12:45;8.30;99.90
44166;DHT22;30476;53.468;9.826;2023-02-13T08:15:13;8.30;99.90
44166;DHT22;30476;53.468;9.826;2023-02-13T08:17:39;8.30;99.90
44166;DHT22;30476;53.468;9.826;2023-02-13T08:20:06;8.30;99.90
44166;DHT22;30476;53.468;9.826;2023-02-13T08:22:33;8.40;99.90
44166;DHT22;30476;53.468;9.826;2023-02-13T08:24:59;8.40;99.90
44166;DHT22;30476;53.468;9.826;2023-02-13T08:27:25;8.40;99.90
44166;DHT22;30476;53.468;9.826;2023-02-13T08:29:50;8.40;99.90
44166;DHT22;30476;53.468;9.826;2023-02-13T08:32:16;8.40;99.90
44166;DHT22;30476;53.468;9.826;2023-02-13T08:34:42;8.40;99.90
44166;DHT22;30476;53.468;9.826;2023-02-13T08:37:08;8.40;99.90
44166;DHT22;30476;53.468;9.826;2023-02-13T08:39:34;8.40;99.90
44166;DHT22;30476;53.468;9.826;2023-02-13T08:42:00;8.40;99.90
44166;DHT22;30476;53.468;9.826;2023-02-13T08:44:26;8.50;99.90
44166;DHT22;30476;53.468;9.826;2023-02-13T08:46:52;8.50;99.90
44166;DHT22;30476;53.468;9.826;2023-02-13T08:49:17;8.50;99.90
44166;DHT22;30476;53.468;9.826;2023-02-13T08:51:43;8.50;99.90
44166;DHT22;30476;53.468;9.826;2023-02-13T08:54:09;8.60;99.90
44166;DHT22;30476;53.468;9.826;2023-02-13T08:56:35;8.50;99.90
44166;DHT22;30476;53.468;9.826;2023-02-13T08:59:01;8.50;99.90
44166;DHT22;30476;53.468;9.826;2023-02-13T09:01:27;8.60;99.90
44166;DHT22;30476;53.468;9.826;2023-02-13T09:03:52;8.60;99.90
44166;DHT22;30476;53.468;9.826;2023-02-13T09:06:19;8.60;99.90
44166;DHT22;30476;53.468;9.826;2023-02-13T09:08:45;8.70;99.90
44166;DHT22;30476;53.468;9.826;2023-02-13T09:11:11;8.70;99.90
44166;DHT22;30476;53.468;9.826;2023-02-13T09:13:37;8.60;99.90
44166;DHT22;30476;53.468;9.826;2023-02-13T09:16:04;8.70;99.90
44166;DHT22;30476;53.468;9.826;2023-02-13T09:18:30;8.70;99.90
44166;DHT22;30476;53.468;9.826;2023-02-13T09:21:08;8.70;99.90
44166;DHT22;30476;53.468;9.826;2023-02-13T09:23:39;8.70;99.90
44166;DHT22;30476;53.468;9.826;2023-02-13T09:26:08;8.70;99.90
44166;DHT22;30476;53.468;9.826;2023-02-13T09:28:35;8.70;99.90
44166;DHT22;30476;53.468;9.826;2023-02-13T09:31:06;8.80;99.90
44166;DHT22;30476;53.468;9.826;2023-02-13T09:33:32;8.80;99.90
44166;DHT22;30476;53.468;9.826;2023-02-13T09:35:58;8.80;99.90
44166;DHT22;30476;53.468;9.826;2023-02-13T09:38:23;8.80;99.90
44166;DHT22;30476;53.468;9.826;2023-02-13T09:40:53;8.80;99.90
44166;DHT22;30476;53.468;9.826;2023-02-13T09:43:28;8.80;99.90
44166;DHT22;30476;53.468;9.826;2023-02-13T09:45:58;8.80;99.90
44166;DHT22;30476;53.468;9.826;2023-02-13T09:48:31;8.90;99.90
44166;DHT22;30476;53.468;9.826;2023-02-13T09:50:58;8.80;99.90
44166;DHT22;30476;53.468;9.826;2023-02-13T09:53:27;8.90;99.90
44166;DHT22;30476;53.468;9.826;2023-02-13T09:58:35;8.90;99.90
44166;DHT22;30476;53.468;9.826;2023-02-13T10:01:10;8.90;99.90
44166;DHT22;30476;53.468;9.826;2023-02-13T10:06:54;9.00;99.90
44166;DHT22;30476;53.468;9.826;2023-02-13T10:09:47;9.00;99.90
44166;DHT22;30476;53.468;9.826;2023-02-13T10:12:42;9.00;99.90
44166;DHT22;30476;53.468;9.826;2023-02-13T10:15:23;9.00;99.90
44166;DHT22;30476;53.468;9.826;2023-02-13T10:17:57;9.00;99.90
44166;DHT22;30476;53.468;9.826;2023-02-13T10:20:29;9.10;99.90
44166;DHT22;30476;53.468;9.826;2023-02-13T10:23:26;9.10;99.90
44166;DHT22;30476;53.468;9.826;2023-02-13T10:26:01;9.00;99.90
44166;DHT22;30476;53.468;9.826;2023-02-13T10:28:38;9.10;99.90
44166;DHT22;30476;53.468;9.826;2023-02-13T10:31:09;9.10;99.90
44166;DHT22;30476;53.468;9.826;2023-02-13T10:33:49;9.10;99.90
44166;DHT22;30476;53.468;9.826;2023-02-13T10:36:23;9.10;99.90
44166;DHT22;30476;53.468;9.826;2023-02-13T10:44:40;9.20;99.90
44166;DHT22;30476;53.468;9.826;2023-02-13T10:50:13;9.20;99.90
44166;DHT22;30476;53.468;9.826;2023-02-13T10:53:00;9.20;99.90
44166;DHT22;30476;53.468;9.826;2023-02-13T11:01:13;9.30;99.90
44166;DHT22;30476;53.468;9.826;2023-02-13T11:03:41;9.30;99.90
44166;DHT22;30476;53.468;9.826;2023-02-13T11:06:11;9.30;99.90
44166;DHT22;30476;53.468;9.826;2023-02-13T11:08:44;9.30;99.90
44166;DHT22;30476;53.468;9.826;2023-02-13T11:11:38;9.30;99.90
44166;DHT22;30476;53.468;9.826;2023-02-13T11:14:13;9.30;99.90
44166;DHT22;30476;53.468;9.826;2023-02-13T11:19:16;9.40;99.90
44166;DHT22;30476;53.468;9.826;2023-02-13T11:21:42;9.40;99.90
44166;DHT22;30476;53.468;9.826;2023-02-13T11:24:18;9.40;99.90
44166;DHT22;30476;53.468;9.826;2023-02-13T11:26:50;9.50;99.90
44166;DHT22;30476;53.468;9.826;2023-02-13T11:29:29;9.50;99.90
44166;DHT22;30476;53.468;9.826;2023-02-13T11:32:05;9.50;99.90
44166;DHT22;30476;53.468;9.826;2023-02-13T11:34:36;9.50;99.90
44166;DHT22;30476;53.468;9.826;2023-02-13T11:39:41;9.50;99.90
44166;DHT22;30476;53.468;9.826;2023-02-13T11:44:50;9.60;99.90
44166;DHT22;30476;53.468;9.826;2023-02-13T11:50:01;9.60;99.90
44166;DHT22;30476;53.468;9.826;2023-02-13T11:52:30;9.60;99.90
44166;DHT22;30476;53.468;9.826;2023-02-13T11:54:59;9.60;99.90
44166;DHT22;30476;53.468;9.826;2023-02-13T11:57:33;9.60;99.90
44166;DHT22;30476;53.468;9.826;2023-02-13T12:00:01;9.60;99.90
44166;DHT22;30476;53.468;9.826;2023-02-13T12:02:47;9.60;99.90
44166;DHT22;30476;53.468;9.826;2023-02-13T12:05:24;9.70;99.90
44166;DHT22;30476;53.468;9.826;2023-02-13T12:07:51;9.70;99.90
44166;DHT22;30476;53.468;9.826;2023-02-13T12:10:28;9.70;99.90
44166;DHT22;30476;53.468;9.826;2023-02-13T12:13:20;9.70;99.90
44166;DHT22;30476;53.468;9.826;2023-02-13T12:15:52;9.70;99.90
44166;DHT22;30476;53.468;9.826;2023-02-13T12:18:37;9.70;99.90
44166;DHT22;30476;53.468;9.826;2023-02-13T12:21:35;9.80;99.90
44166;DHT22;30476;53.468;9.826;2023-02-13T12:24:16;9.80;99.90
44166;DHT22;30476;53.468;9.826;2023-02-13T12:26:47;9.80;99.90
44166;DHT22;30476;53.468;9.826;2023-02-13T12:29:52;9.80;99.90
44166;DHT22;30476;53.468;9.826;2023-02-13T12:32:57;9.80;99.90
44166;DHT22;30476;53.468;9.826;2023-02-13T12:38:21;9.70;99.90
44166;DHT22;30476;53.468;9.826;2023-02-13T12:41:14;9.80;99.90
44166;DHT22;30476;53.468;9.826;2023-02-13T12:44:00;9.80;99.90
44166;DHT22;30476;53.468;9.826;2023-02-13T12:52:38;9.80;99.90
44166;DHT22;30476;53.468;9.826;2023-02-13T12:55:21;9.80;99.90
44166;DHT22;30476;53.468;9.826;2023-02-13T12:58:00;9.80;99.90
44166;DHT22;30476;53.468;9.826;2023-02-13T13:19:39;9.80;99.90
44166;DHT22;30476;53.468;9.826;2023-02-13T13:25:17;9.70;99.90
44166;DHT22;30476;53.468;9.826;2023-02-13T13:27:49;9.70;99.90
44166;DHT22;30476;53.468;9.826;2023-02-13T13:30:26;9.70;99.90
44166;DHT22;30476;53.468;9.826;2023-02-13T13:33:13;9.70;99.90
44166;DHT22;30476;53.468;9.826;2023-02-13T13:35:43;9.70;99.90
44166;DHT22;30476;53.468;9.826;2023-02-13T13:38:27;9.80;99.90
44166;DHT22;30476;53.468;9.826;2023-02-13T13:44:18;9.70;99.90
44166;DHT22;30476;53.468;9.826;2023-02-13T13:46:51;9.70;99.90
44166;DHT22;30476;53.468;9.826;2023-02-13T13:49:26;9.80;99.90
44166;DHT22;30476;53.468;9.826;2023-02-13T13:54:54;9.70;99.90
44166;DHT22;30476;53.468;9.826;2023-02-13T13:57:24;9.80;99.90
44166;DHT22;30476;53.468;9.826;2023-02-13T13:59:54;9.80;99.90
44166;DHT22;30476;53.468;9.826;2023-02-13T14:05:17;9.80;99.90
44166;DHT22;30476;53.468;9.826;2023-02-13T14:07:44;9.80;99.90
44166;DHT22;30476;53.468;9.826;2023-02-13T14:13:01;9.80;99.90
44166;DHT22;30476;53.468;9.826;2023-02-13T14:23:26;9.70;99.90
44166;DHT22;30476;53.468;9.826;2023-02-13T14:26:12;9.70;99.90
44166;DHT22;30476;53.468;9.826;2023-02-13T14:34:54;9.70;99.90
44166;DHT22;30476;53.468;9.826;2023-02-13T14:37:26;9.60;99.90
44166;DHT22;30476;53.468;9.826;2023-02-13T14:42:47;9.60;99.90
44166;DHT22;30476;53.468;9.826;2023-02-13T14:45:21;9.60;99.90
44166;DHT22;30476;53.468;9.826;2023-02-13T14:47:52;9.60;99.90
44166;DHT22;30476;53.468;9.826;2023-02-13T14:50:29;9.60;99.90
44166;DHT22;30476;53.468;9.826;2023-02-13T14:52:59;9.60;99.90
44166;DHT22;30476;53.468;9.826;2023-02-13T14:55:44;9.60;99.90
44166;DHT22;30476;53.468;9.826;2023-02-13T14:58:12;9.60;99.90
44166;DHT22;30476;53.468;9.826;2023-02-13T15:00:51;9.60;99.90
44166;DHT22;30476;53.468;9.826;2023-02-13T15:03:53;9.60;99.90
44166;DHT22;30476;53.468;9.826;2023-02-13T15:06:40;9.60;99.90
44166;DHT22;30476;53.468;9.826;2023-02-13T15:09:34;9.60;99.90
44166;DHT22;30476;53.468;9.826;2023-02-13T15:12:04;9.60;99.90
44166;DHT22;30476;53.468;9.826;2023-02-13T15:14:48;9.60;99.90
44166;DHT22;30476;53.468;9.826;2023-02-13T15:17:17;9.50;99.90
44166;DHT22;30476;53.468;9.826;2023-02-13T15:19:46;9.50;99.90
44166;DHT22;30476;53.468;9.826;2023-02-13T15:22:35;9.50;99.90
44166;DHT22;30476;53.468;9.826;2023-02-13T15:25:01;9.50;99.90
44166;DHT22;30476;53.468;9.826;2023-02-13T15:27:29;9.40;99.90
44166;DHT22;30476;53.468;9.826;2023-02-13T15:30:15;9.40;99.90
44166;DHT22;30476;53.468;9.826;2023-02-13T15:32:42;9.40;99.90
44166;DHT22;30476;53.468;9.826;2023-02-13T15:35:21;9.40;99.90
44166;DHT22;30476;53.468;9.826;2023-02-13T15:37:47;9.40;99.90
44166;DHT22;30476;53.468;9.826;2023-02-13T15:40:33;9.40;99.90
44166;DHT22;30476;53.468;9.826;2023-02-13T15:43:03;9.40;99.90
44166;DHT22;30476;53.468;9.826;2023-02-13T15:45:42;9.40;99.90
44166;DHT22;30476;53.468;9.826;2023-02-13T15:48:15;9.30;99.90
44166;DHT22;30476;53.468;9.826;2023-02-13T15:50:41;9.30;99.90
44166;DHT22;30476;53.468;9.826;2023-02-13T15:53:12;9.30;99.90
44166;DHT22;30476;53.468;9.826;2023-02-13T15:55:39;9.30;99.90
44166;DHT22;30476;53.468;9.826;2023-02-13T15:58:10;9.30;99.90
44166;DHT22;30476;53.468;9.826;2023-02-13T16:00:40;9.30;99.90
44166;DHT22;30476;53.468;9.826;2023-02-13T16:03:13;9.30;99.90
44166;DHT22;30476;53.468;9.826;2023-02-13T16:05:41;9.30;99.90
44166;DHT22;30476;53.468;9.826;2023-02-13T16:14:14;9.50;99.90
44166;DHT22;30476;53.468;9.826;2023-02-13T16:17:00;9.50;99.90
44166;DHT22;30476;53.468;9.826;2023-02-13T16:19:36;9.60;99.90
44166;DHT22;30476;53.468;9.826;2023-02-13T16:30:23;9.60;99.90
44166;DHT22;30476;53.468;9.826;2023-02-13T16:32:50;9.60;99.90
44166;DHT22;30476;53.468;9.826;2023-02-13T16:35:28;9.60;99.90
44166;DHT22;30476;53.468;9.826;2023-02-13T16:37:59;9.60;99.90
44166;DHT22;30476;53.468;9.826;2023-02-13T16:46:16;9.60;99.90
44166;DHT22;30476;53.468;9.826;2023-02-13T16:51:31;9.50;99.90
44166;DHT22;30476;53.468;9.826;2023-02-13T16:54:01;9.50;99.90
44166;DHT22;30476;53.468;9.826;2023-02-13T16:56:49;9.50;99.90
44166;DHT22;30476;53.468;9.826;2023-02-13T16:59:41;9.50;99.90
44166;DHT22;30476;53.468;9.826;2023-02-13T17:05:14;9.40;99.90
44166;DHT22;30476;53.468;9.826;2023-02-13T17:07:43;9.40;99.90
44166;DHT22;30476;53.468;9.826;2023-02-13T17:15:31;9.30;99.90
44166;DHT22;30476;53.468;9.826;2023-02-13T17:17:57;9.30;99.90
44166;DHT22;30476;53.468;9.826;2023-02-13T17:20:27;9.30;99.90
44166;DHT22;30476;53.468;9.826;2023-02-13T17:22:56;9.30;99.90
44166;DHT22;30476;53.468;9.826;2023-02-13T17:25:33;9.30;99.90
44166;DHT22;30476;53.468;9.826;2023-02-13T17:28:05;9.20;99.90
44166;DHT22;30476;53.468;9.826;2023-02-13T17:30:35;9.20;99.90
44166;DHT22;30476;53.468;9.826;2023-02-13T17:33:05;9.20;99.90
44166;DHT22;30476;53.468;9.826;2023-02-13T17:35:32;9.20;99.90
44166;DHT22;30476;53.468;9.826;2023-02-13T17:37:58;9.10;99.90
44166;DHT22;30476;53.468;9.826;2023-02-13T17:40:25;9.10;99.90
44166;DHT22;30476;53.468;9.826;2023-02-13T17:42:54;9.10;99.90
44166;DHT22;30476;53.468;9.826;2023-02-13T17:45:23;9.10;99.90
44166;DHT22;30476;53.468;9.826;2023-02-13T17:47:49;9.10;99.90
44166;DHT22;30476;53.468;9.826;2023-02-13T17:50:15;9.10;99.90
44166;DHT22;30476;53.468;9.826;2023-02-13T17:52:45;9.00;99.90
44166;DHT22;30476;53.468;9.826;2023-02-13T17:55:23;9.10;99.90
44166;DHT22;30476;53.468;9.826;2023-02-13T17:57:50;9.00;99.90
44166;DHT22;30476;53.468;9.826;2023-02-13T18:00:21;8.90;99.90
44166;DHT22;30476;53.468;9.826;2023-02-13T18:02:48;9.00;99.90
44166;DHT22;30476;53.468;9.826;2023-02-13T18:05:15;8.90;99.90
44166;DHT22;30476;53.468;9.826;2023-02-13T18:07:41;8.90;99.90
44166;DHT22;30476;53.468;9.826;2023-02-13T18:10:11;8.90;99.90
44166;DHT22;30476;53.468;9.826;2023-02-13T18:12:38;8.90;99.90
44166;DHT22;30476;53.468;9.826;2023-02-13T18:15:04;8.90;99.90
44166;DHT22;30476;53.468;9.826;2023-02-13T18:17:31;8.90;99.90
44166;DHT22;30476;53.468;9.826;2023-02-13T18:19:57;8.90;99.90
44166;DHT22;30476;53.468;9.826;2023-02-13T18:22:23;8.80;99.90
44166;DHT22;30476;53.468;9.826;2023-02-13T18:24:49;8.80;99.90
44166;DHT22;30476;53.468;9.826;2023-02-13T18:27:15;8.80;99.90
44166;DHT22;30476;53.468;9.826;2023-02-13T18:29:41;8.80;99.90
44166;DHT22;30476;53.468;9.826;2023-02-13T18:32:08;8.80;99.90
44166;DHT22;30476;53.468;9.826;2023-02-13T18:34:34;8.80;99.90
44166;DHT22;30476;53.468;9.826;2023-02-13T18:37:00;8.80;99.90
44166;DHT22;30476;53.468;9.826;2023-02-13T18:39:26;8.80;99.90
44166;DHT22;30476;53.468;9.826;2023-02-13T18:41:52;8.80;99.90